sensor_id;sensor_type;location;lat;lon;timestamp;temperature;humidity
62154;DHT22;48140;45.486;9.226;2023-04-16T00:00:50;13.00;83.10
62154;DHT22;48140;45.486;9.226;2023-04-16T00:03:18;13.00;83.20
62154;DHT22;48140;45.486;9.226;2023-04-16T00:05:44;13.30;83.40
62154;DHT22;48140;45.486;9.226;2023-04-16T00:08:10;12.90;82.70
62154;DHT22;48140;45.486;9.226;2023-04-16T00:10:35;13.00;82.90
62154;DHT22;48140;45.486;9.226;2023-04-16T00:13:01;12.90;82.50
62154;DHT22;48140;45.486;9.226;2023-04-16T00:15:27;12.90;82.50
62154;DHT22;48140;45.486;9.226;2023-04-16T00:17:52;12.90;82.00
62154;DHT22;48140;45.486;9.226;2023-04-16T00:20:18;12.70;83.90
62154;DHT22;48140;45.486;9.226;2023-04-16T00:22:44;12.70;82.60
62154;DHT22;48140;45.486;9.226;2023-04-16T00:25:10;12.60;82.90
62154;DHT22;48140;45.486;9.226;2023-04-16T00:27:36;12.70;83.20
62154;DHT22;48140;45.486;9.226;2023-04-16T00:30:02;12.60;83.00
62154;DHT22;48140;45.486;9.226;2023-04-16T00:32:28;12.60;82.60
62154;DHT22;48140;45.486;9.226;2023-04-16T00:34:54;12.60;82.90
62154;DHT22;48140;45.486;9.226;2023-04-16T00:37:20;12.50;83.00
62154;DHT22;48140;45.486;9.226;2023-04-16T00:39:48;12.50;82.80
62154;DHT22;48140;45.486;9.226;2023-04-16T00:42:14;12.50;82.80
62154;DHT22;48140;45.486;9.226;2023-04-16T00:44:40;12.50;82.80
62154;DHT22;48140;45.486;9.226;2023-04-16T00:47:05;12.70;83.30
62154;DHT22;48140;45.486;9.226;2023-04-16T00:49:32;12.50;82.90
62154;DHT22;48140;45.486;9.226;2023-04-16T00:51:57;12.40;82.90
62154;DHT22;48140;45.486;9.226;2023-04-16T00:54:24;12.90;83.20
62154;DHT22;48140;45.486;9.226;2023-04-16T00:56:50;12.40;82.90
62154;DHT22;48140;45.486;9.226;2023-04-16T00:59:16;12.40;82.60
62154;DHT22;48140;45.486;9.226;2023-04-16T01:01:41;12.40;82.50
62154;DHT22;48140;45.486;9.226;2023-04-16T01:04:07;12.40;82.70
62154;DHT22;48140;45.486;9.226;2023-04-16T01:06:33;12.40;82.50
62154;DHT22;48140;45.486;9.226;2023-04-16T01:08:59;12.40;82.80
62154;DHT22;48140;45.486;9.226;2023-04-16T01:11:25;12.40;82.80
62154;DHT22;48140;45.486;9.226;2023-04-16T01:13:50;12.40;83.00
62154;DHT22;48140;45.486;9.226;2023-04-16T01:16:16;12.40;83.00
62154;DHT22;48140;45.486;9.226;2023-04-16T01:18:42;12.30;83.30
62154;DHT22;48140;45.486;9.226;2023-04-16T01:21:07;12.30;83.80
62154;DHT22;48140;45.486;9.226;2023-04-16T01:23:33;12.30;83.80
62154;DHT22;48140;45.486;9.226;2023-04-16T01:25:59;12.30;84.10
62154;DHT22;48140;45.486;9.226;2023-04-16T01:28:25;12.30;84.00
62154;DHT22;48140;45.486;9.226;2023-04-16T01:30:50;12.30;84.00
62154;DHT22;48140;45.486;9.226;2023-04-16T01:33:17;12.30;83.90
62154;DHT22;48140;45.486;9.226;2023-04-16T01:35:42;12.30;84.20
62154;DHT22;48140;45.486;9.226;2023-04-16T01:38:11;12.40;84.50
62154;DHT22;48140;45.486;9.226;2023-04-16T01:40:37;12.30;84.80
62154;DHT22;48140;45.486;9.226;2023-04-16T01:43:03;12.20;85.00
62154;DHT22;48140;45.486;9.226;2023-04-16T01:45:33;12.20;84.60
62154;DHT22;48140;45.486;9.226;2023-04-16T01:47:59;12.20;85.00
62154;DHT22;48140;45.486;9.226;2023-04-16T01:50:25;12.20;85.20
62154;DHT22;48140;45.486;9.226;2023-04-16T01:52:51;12.20;85.00
62154;DHT22;48140;45.486;9.226;2023-04-16T01:55:17;12.20;84.90
62154;DHT22;48140;45.486;9.226;2023-04-16T01:57:42;12.20;84.80
62154;DHT22;48140;45.486;9.226;2023-04-16T02:00:08;12.20;85.20
62154;DHT22;48140;45.486;9.226;2023-04-16T02:02:34;12.10;85.70
62154;DHT22;48140;45.486;9.226;2023-04-16T02:05:00;12.10;86.20
62154;DHT22;48140;45.486;9.226;2023-04-16T02:07:26;12.10;85.80
62154;DHT22;48140;45.486;9.226;2023-04-16T02:09:55;12.10;85.80
62154;DHT22;48140;45.486;9.226;2023-04-16T02:12:22;12.00;86.10
62154;DHT22;48140;45.486;9.226;2023-04-16T02:14:48;11.90;86.60
62154;DHT22;48140;45.486;9.226;2023-04-16T02:17:13;11.90;86.90
62154;DHT22;48140;45.486;9.226;2023-04-16T02:19:42;11.90;86.50
62154;DHT22;48140;45.486;9.226;2023-04-16T02:22:07;11.80;86.90
62154;DHT22;48140;45.486;9.226;2023-04-16T02:24:33;11.90;87.50
62154;DHT22;48140;45.486;9.226;2023-04-16T02:26:59;11.90;87.60
62154;DHT22;48140;45.486;9.226;2023-04-16T02:29:25;11.90;87.40
62154;DHT22;48140;45.486;9.226;2023-04-16T02:31:50;11.90;87.10
62154;DHT22;48140;45.486;9.226;2023-04-16T02:34:16;11.90;87.20
62154;DHT22;48140;45.486;9.226;2023-04-16T02:36:42;11.90;87.30
62154;DHT22;48140;45.486;9.226;2023-04-16T02:39:07;11.80;87.30
62154;DHT22;48140;45.486;9.226;2023-04-16T02:41:33;11.80;87.20
62154;DHT22;48140;45.486;9.226;2023-04-16T02:43:58;12.00;87.60
62154;DHT22;48140;45.486;9.226;2023-04-16T02:46:24;11.80;87.80
62154;DHT22;48140;45.486;9.226;2023-04-16T02:48:50;11.80;87.70
62154;DHT22;48140;45.486;9.226;2023-04-16T02:51:15;11.80;87.90
62154;DHT22;48140;45.486;9.226;2023-04-16T02:53:41;11.80;88.30
62154;DHT22;48140;45.486;9.226;2023-04-16T02:56:10;11.70;88.40
62154;DHT22;48140;45.486;9.226;2023-04-16T02:58:36;11.70;87.90
62154;DHT22;48140;45.486;9.226;2023-04-16T03:01:02;11.70;88.30
62154;DHT22;48140;45.486;9.226;2023-04-16T03:03:27;11.70;88.30
62154;DHT22;48140;45.486;9.226;2023-04-16T03:05:53;11.70;88.70
62154;DHT22;48140;45.486;9.226;2023-04-16T03:08:19;11.70;88.50
62154;DHT22;48140;45.486;9.226;2023-04-16T03:10:44;11.60;88.80
62154;DHT22;48140;45.486;9.226;2023-04-16T03:13:10;11.80;89.30
62154;DHT22;48140;45.486;9.226;2023-04-16T03:15:35;11.60;89.00
62154;DHT22;48140;45.486;9.226;2023-04-16T03:18:01;11.60;88.60
62154;DHT22;48140;45.486;9.226;2023-04-16T03:20:27;11.50;88.70
62154;DHT22;48140;45.486;9.226;2023-04-16T03:22:53;11.50;89.10
62154;DHT22;48140;45.486;9.226;2023-04-16T03:25:18;11.50;89.50
62154;DHT22;48140;45.486;9.226;2023-04-16T03:27:44;11.50;89.90
62154;DHT22;48140;45.486;9.226;2023-04-16T03:30:11;11.40;90.30
62154;DHT22;48140;45.486;9.226;2023-04-16T03:32:37;11.60;89.50
62154;DHT22;48140;45.486;9.226;2023-04-16T03:35:07;11.50;89.80
62154;DHT22;48140;45.486;9.226;2023-04-16T03:37:33;11.40;90.00
62154;DHT22;48140;45.486;9.226;2023-04-16T03:39:59;11.40;90.00
62154;DHT22;48140;45.486;9.226;2023-04-16T03:42:25;11.40;90.30
62154;DHT22;48140;45.486;9.226;2023-04-16T03:44:50;11.40;90.00
62154;DHT22;48140;45.486;9.226;2023-04-16T03:47:18;11.40;89.90
62154;DHT22;48140;45.486;9.226;2023-04-16T03:49:44;11.70;90.00
62154;DHT22;48140;45.486;9.226;2023-04-16T03:52:09;11.50;90.00
62154;DHT22;48140;45.486;9.226;2023-04-16T03:54:35;11.40;89.80
62154;DHT22;48140;45.486;9.226;2023-04-16T03:57:01;11.40;90.00
62154;DHT22;48140;45.486;9.226;2023-04-16T03:59:27;11.30;90.00
62154;DHT22;48140;45.486;9.226;2023-04-16T04:01:52;11.40;90.10
62154;DHT22;48140;45.486;9.226;2023-04-16T04:04:18;11.30;90.40
62154;DHT22;48140;45.486;9.226;2023-04-16T04:06:45;11.30;90.40
62154;DHT22;48140;45.486;9.226;2023-04-16T04:09:11;11.30;90.40
62154;DHT22;48140;45.486;9.226;2023-04-16T04:11:37;11.30;90.50
62154;DHT22;48140;45.486;9.226;2023-04-16T04:14:02;11.80;90.90
62154;DHT22;48140;45.486;9.226;2023-04-16T04:16:30;11.40;90.70
62154;DHT22;48140;45.486;9.226;2023-04-16T04:18:55;11.20;90.60
62154;DHT22;48140;45.486;9.226;2023-04-16T04:21:21;11.20;90.70
62154;DHT22;48140;45.486;9.226;2023-04-16T04:23:47;11.20;91.00
62154;DHT22;48140;45.486;9.226;2023-04-16T04:26:12;11.20;91.00
62154;DHT22;48140;45.486;9.226;2023-04-16T04:28:38;11.70;91.20
62154;DHT22;48140;45.486;9.226;2023-04-16T04:31:04;11.20;91.00
62154;DHT22;48140;45.486;9.226;2023-04-16T04:33:29;11.30;91.40
62154;DHT22;48140;45.486;9.226;2023-04-16T04:35:55;11.10;91.30
62154;DHT22;48140;45.486;9.226;2023-04-16T04:38:20;11.10;91.40
62154;DHT22;48140;45.486;9.226;2023-04-16T04:40:50;11.50;91.50
62154;DHT22;48140;45.486;9.226;2023-04-16T04:43:15;11.00;91.60
62154;DHT22;48140;45.486;9.226;2023-04-16T04:45:41;11.00;91.40
62154;DHT22;48140;45.486;9.226;2023-04-16T04:48:07;11.00;91.50
62154;DHT22;48140;45.486;9.226;2023-04-16T04:50:32;11.00;91.50
62154;DHT22;48140;45.486;9.226;2023-04-16T04:52:58;11.00;91.50
62154;DHT22;48140;45.486;9.226;2023-04-16T04:55:24;11.00;91.50
62154;DHT22;48140;45.486;9.226;2023-04-16T04:57:49;11.00;91.70
62154;DHT22;48140;45.486;9.226;2023-04-16T05:00:15;11.00;91.80
62154;DHT22;48140;45.486;9.226;2023-04-16T05:02:41;11.00;91.80
62154;DHT22;48140;45.486;9.226;2023-04-16T05:05:07;11.50;91.80
62154;DHT22;48140;45.486;9.226;2023-04-16T05:07:32;11.10;91.60
62154;DHT22;48140;45.486;9.226;2023-04-16T05:09:58;11.10;91.60
62154;DHT22;48140;45.486;9.226;2023-04-16T05:12:24;11.10;91.30
62154;DHT22;48140;45.486;9.226;2023-04-16T05:14:49;11.10;91.50
62154;DHT22;48140;45.486;9.226;2023-04-16T05:17:15;11.10;91.40
62154;DHT22;48140;45.486;9.226;2023-04-16T05:19:41;11.20;91.40
62154;DHT22;48140;45.486;9.226;2023-04-16T05:22:06;11.20;91.40
62154;DHT22;48140;45.486;9.226;2023-04-16T05:24:32;11.20;91.40
62154;DHT22;48140;45.486;9.226;2023-04-16T05:26:58;11.30;91.30
62154;DHT22;48140;45.486;9.226;2023-04-16T05:29:23;11.50;91.30
62154;DHT22;48140;45.486;9.226;2023-04-16T05:31:49;11.40;91.10
62154;DHT22;48140;45.486;9.226;2023-04-16T05:34:15;11.40;91.10
62154;DHT22;48140;45.486;9.226;2023-04-16T05:36:40;11.40;90.80
62154;DHT22;48140;45.486;9.226;2023-04-16T05:39:06;11.50;90.70
62154;DHT22;48140;45.486;9.226;2023-04-16T05:41:32;12.00;90.70
62154;DHT22;48140;45.486;9.226;2023-04-16T05:44:01;11.60;90.90
62154;DHT22;48140;45.486;9.226;2023-04-16T05:46:27;11.70;90.40
62154;DHT22;48140;45.486;9.226;2023-04-16T05:48:52;11.60;90.30
62154;DHT22;48140;45.486;9.226;2023-04-16T05:51:18;11.80;90.30
62154;DHT22;48140;45.486;9.226;2023-04-16T05:53:44;11.80;90.10
62154;DHT22;48140;45.486;9.226;2023-04-16T05:56:10;12.10;90.00
62154;DHT22;48140;45.486;9.226;2023-04-16T05:58:35;12.00;89.20
62154;DHT22;48140;45.486;9.226;2023-04-16T06:01:01;12.00;88.90
62154;DHT22;48140;45.486;9.226;2023-04-16T06:03:27;12.40;88.20
62154;DHT22;48140;45.486;9.226;2023-04-16T06:05:53;12.20;87.20
62154;DHT22;48140;45.486;9.226;2023-04-16T06:08:19;12.30;87.50
62154;DHT22;48140;45.486;9.226;2023-04-16T06:10:45;12.40;87.10
62154;DHT22;48140;45.486;9.226;2023-04-16T06:13:11;12.50;86.60
62154;DHT22;48140;45.486;9.226;2023-04-16T06:15:37;12.60;86.30
62154;DHT22;48140;45.486;9.226;2023-04-16T06:18:03;12.60;86.00
62154;DHT22;48140;45.486;9.226;2023-04-16T06:20:29;12.70;85.90
62154;DHT22;48140;45.486;9.226;2023-04-16T06:22:55;12.60;86.70
62154;DHT22;48140;45.486;9.226;2023-04-16T06:25:21;12.80;86.30
62154;DHT22;48140;45.486;9.226;2023-04-16T06:27:46;12.90;85.40
62154;DHT22;48140;45.486;9.226;2023-04-16T06:30:14;13.00;85.00
62154;DHT22;48140;45.486;9.226;2023-04-16T06:32:42;13.10;84.50
62154;DHT22;48140;45.486;9.226;2023-04-16T06:35:08;13.30;84.10
62154;DHT22;48140;45.486;9.226;2023-04-16T06:37:34;13.40;83.90
62154;DHT22;48140;45.486;9.226;2023-04-16T06:40:00;13.30;83.70
62154;DHT22;48140;45.486;9.226;2023-04-16T06:42:25;13.40;82.80
62154;DHT22;48140;45.486;9.226;2023-04-16T06:44:51;13.50;81.90
62154;DHT22;48140;45.486;9.226;2023-04-16T06:47:17;13.70;81.60
62154;DHT22;48140;45.486;9.226;2023-04-16T06:49:42;13.80;81.40
62154;DHT22;48140;45.486;9.226;2023-04-16T06:52:08;13.90;81.30
62154;DHT22;48140;45.486;9.226;2023-04-16T06:54:34;14.00;81.10
62154;DHT22;48140;45.486;9.226;2023-04-16T06:57:00;14.00;83.30
62154;DHT22;48140;45.486;9.226;2023-04-16T06:59:26;14.00;81.70
62154;DHT22;48140;45.486;9.226;2023-04-16T07:01:51;14.10;81.00
62154;DHT22;48140;45.486;9.226;2023-04-16T07:04:17;14.10;80.60
62154;DHT22;48140;45.486;9.226;2023-04-16T07:06:43;14.10;80.60
62154;DHT22;48140;45.486;9.226;2023-04-16T07:09:08;14.00;80.80
62154;DHT22;48140;45.486;9.226;2023-04-16T07:11:34;14.20;80.70
62154;DHT22;48140;45.486;9.226;2023-04-16T07:14:00;14.20;80.40
62154;DHT22;48140;45.486;9.226;2023-04-16T07:16:26;14.20;80.30
62154;DHT22;48140;45.486;9.226;2023-04-16T07:18:51;14.20;80.70
62154;DHT22;48140;45.486;9.226;2023-04-16T07:21:17;14.30;80.20
62154;DHT22;48140;45.486;9.226;2023-04-16T07:23:42;14.30;80.40
62154;DHT22;48140;45.486;9.226;2023-04-16T07:26:08;14.50;80.20
62154;DHT22;48140;45.486;9.226;2023-04-16T07:28:34;14.50;79.70
62154;DHT22;48140;45.486;9.226;2023-04-16T07:31:00;14.50;80.30
62154;DHT22;48140;45.486;9.226;2023-04-16T07:33:26;14.60;79.40
62154;DHT22;48140;45.486;9.226;2023-04-16T07:35:51;14.70;79.20
62154;DHT22;48140;45.486;9.226;2023-04-16T07:38:17;14.70;79.20
62154;DHT22;48140;45.486;9.226;2023-04-16T07:40:43;14.90;78.80
62154;DHT22;48140;45.486;9.226;2023-04-16T07:43:09;14.90;78.20
62154;DHT22;48140;45.486;9.226;2023-04-16T07:45:35;14.90;79.90
62154;DHT22;48140;45.486;9.226;2023-04-16T07:48:00;14.90;80.90
62154;DHT22;48140;45.486;9.226;2023-04-16T07:50:26;14.90;80.50
62154;DHT22;48140;45.486;9.226;2023-04-16T07:52:52;14.90;79.60
62154;DHT22;48140;45.486;9.226;2023-04-16T07:55:18;15.10;79.70
62154;DHT22;48140;45.486;9.226;2023-04-16T07:57:43;15.10;79.70
62154;DHT22;48140;45.486;9.226;2023-04-16T08:00:10;15.30;79.10
62154;DHT22;48140;45.486;9.226;2023-04-16T08:02:36;15.30;78.70
62154;DHT22;48140;45.486;9.226;2023-04-16T08:05:02;15.20;79.50
62154;DHT22;48140;45.486;9.226;2023-04-16T08:07:27;15.20;79.90
62154;DHT22;48140;45.486;9.226;2023-04-16T08:09:53;15.00;81.10
62154;DHT22;48140;45.486;9.226;2023-04-16T08:12:19;15.10;80.50
62154;DHT22;48140;45.486;9.226;2023-04-16T08:14:46;15.30;80.20
62154;DHT22;48140;45.486;9.226;2023-04-16T08:17:12;15.40;80.00
62154;DHT22;48140;45.486;9.226;2023-04-16T08:19:38;15.40;79.80
62154;DHT22;48140;45.486;9.226;2023-04-16T08:22:07;15.50;79.90
62154;DHT22;48140;45.486;9.226;2023-04-16T08:24:32;15.50;80.00
62154;DHT22;48140;45.486;9.226;2023-04-16T08:26:58;15.60;79.50
62154;DHT22;48140;45.486;9.226;2023-04-16T08:29:26;15.80;78.50
62154;DHT22;48140;45.486;9.226;2023-04-16T08:31:53;15.80;78.20
62154;DHT22;48140;45.486;9.226;2023-04-16T08:34:18;15.90;77.80
62154;DHT22;48140;45.486;9.226;2023-04-16T08:36:45;15.80;77.40
62154;DHT22;48140;45.486;9.226;2023-04-16T08:39:14;16.00;76.40
62154;DHT22;48140;45.486;9.226;2023-04-16T08:41:42;16.10;75.60
62154;DHT22;48140;45.486;9.226;2023-04-16T08:44:13;16.20;76.00
62154;DHT22;48140;45.486;9.226;2023-04-16T08:46:40;16.30;75.00
62154;DHT22;48140;45.486;9.226;2023-04-16T08:49:07;16.30;72.10
62154;DHT22;48140;45.486;9.226;2023-04-16T08:51:33;15.70;72.10
62154;DHT22;48140;45.486;9.226;2023-04-16T08:54:07;16.00;72.10
62154;DHT22;48140;45.486;9.226;2023-04-16T08:56:35;16.20;72.90
62154;DHT22;48140;45.486;9.226;2023-04-16T08:59:02;16.40;68.40
62154;DHT22;48140;45.486;9.226;2023-04-16T09:01:33;16.50;68.80
62154;DHT22;48140;45.486;9.226;2023-04-16T09:03:59;16.60;69.50
62154;DHT22;48140;45.486;9.226;2023-04-16T09:06:27;16.80;68.50
62154;DHT22;48140;45.486;9.226;2023-04-16T09:08:53;17.20;66.90
62154;DHT22;48140;45.486;9.226;2023-04-16T09:11:19;17.20;64.40
62154;DHT22;48140;45.486;9.226;2023-04-16T09:13:46;17.20;63.90
62154;DHT22;48140;45.486;9.226;2023-04-16T09:16:13;17.20;61.40
62154;DHT22;48140;45.486;9.226;2023-04-16T09:18:39;17.30;63.40
62154;DHT22;48140;45.486;9.226;2023-04-16T09:21:08;17.60;64.00
62154;DHT22;48140;45.486;9.226;2023-04-16T09:23:36;17.60;62.90
62154;DHT22;48140;45.486;9.226;2023-04-16T09:26:03;17.80;63.30
62154;DHT22;48140;45.486;9.226;2023-04-16T09:28:39;18.00;60.10
62154;DHT22;48140;45.486;9.226;2023-04-16T09:31:16;18.20;57.40
62154;DHT22;48140;45.486;9.226;2023-04-16T09:33:43;18.20;55.70
62154;DHT22;48140;45.486;9.226;2023-04-16T09:36:09;18.40;55.60
62154;DHT22;48140;45.486;9.226;2023-04-16T09:38:48;18.50;55.80
62154;DHT22;48140;45.486;9.226;2023-04-16T09:41:14;18.40;56.50
62154;DHT22;48140;45.486;9.226;2023-04-16T09:44:00;18.60;55.90
62154;DHT22;48140;45.486;9.226;2023-04-16T09:46:55;18.70;54.70
62154;DHT22;48140;45.486;9.226;2023-04-16T09:49:33;18.90;53.20
62154;DHT22;48140;45.486;9.226;2023-04-16T09:51:59;19.00;51.90
62154;DHT22;48140;45.486;9.226;2023-04-16T09:54:26;19.10;51.30
62154;DHT22;48140;45.486;9.226;2023-04-16T09:56:55;19.20;51.40
62154;DHT22;48140;45.486;9.226;2023-04-16T09:59:22;18.90;51.80
62154;DHT22;48140;45.486;9.226;2023-04-16T10:01:49;19.20;51.80
62154;DHT22;48140;45.486;9.226;2023-04-16T10:04:15;19.20;52.20
62154;DHT22;48140;45.486;9.226;2023-04-16T10:06:41;19.60;51.00
62154;DHT22;48140;45.486;9.226;2023-04-16T10:09:07;19.80;49.70
62154;DHT22;48140;45.486;9.226;2023-04-16T10:11:33;20.10;47.10
62154;DHT22;48140;45.486;9.226;2023-04-16T10:13:59;20.30;46.00
62154;DHT22;48140;45.486;9.226;2023-04-16T10:16:26;20.50;44.60
62154;DHT22;48140;45.486;9.226;2023-04-16T10:18:52;20.20;45.40
62154;DHT22;48140;45.486;9.226;2023-04-16T10:21:21;20.40;46.10
62154;DHT22;48140;45.486;9.226;2023-04-16T10:23:47;20.50;45.00
62154;DHT22;48140;45.486;9.226;2023-04-16T10:26:14;20.50;44.40
62154;DHT22;48140;45.486;9.226;2023-04-16T10:28:44;20.70;44.00
62154;DHT22;48140;45.486;9.226;2023-04-16T10:31:10;20.70;43.70
62154;DHT22;48140;45.486;9.226;2023-04-16T10:33:39;20.70;44.10
62154;DHT22;48140;45.486;9.226;2023-04-16T10:36:14;20.80;42.70
62154;DHT22;48140;45.486;9.226;2023-04-16T10:38:47;20.70;42.60
62154;DHT22;48140;45.486;9.226;2023-04-16T10:41:14;20.70;42.90
62154;DHT22;48140;45.486;9.226;2023-04-16T10:43:44;20.80;42.70
62154;DHT22;48140;45.486;9.226;2023-04-16T10:46:30;20.90;42.00
62154;DHT22;48140;45.486;9.226;2023-04-16T10:49:00;21.00;41.70
62154;DHT22;48140;45.486;9.226;2023-04-16T10:51:33;21.10;40.50
62154;DHT22;48140;45.486;9.226;2023-04-16T10:56:39;21.10;40.90
62154;DHT22;48140;45.486;9.226;2023-04-16T10:59:05;20.80;39.50
62154;DHT22;48140;45.486;9.226;2023-04-16T11:01:36;20.70;38.90
62154;DHT22;48140;45.486;9.226;2023-04-16T11:07:06;20.70;39.70
62154;DHT22;48140;45.486;9.226;2023-04-16T11:15:08;20.70;38.80
62154;DHT22;48140;45.486;9.226;2023-04-16T11:17:44;20.60;38.80
62154;DHT22;48140;45.486;9.226;2023-04-16T11:20:27;20.50;38.60
62154;DHT22;48140;45.486;9.226;2023-04-16T11:22:54;20.90;37.40
62154;DHT22;48140;45.486;9.226;2023-04-16T11:25:21;21.20;37.10
62154;DHT22;48140;45.486;9.226;2023-04-16T11:27:48;21.60;35.80
62154;DHT22;48140;45.486;9.226;2023-04-16T11:30:14;21.80;34.70
62154;DHT22;48140;45.486;9.226;2023-04-16T11:32:39;22.20;33.90
62154;DHT22;48140;45.486;9.226;2023-04-16T11:35:16;22.50;33.40
62154;DHT22;48140;45.486;9.226;2023-04-16T11:37:43;23.00;33.30
62154;DHT22;48140;45.486;9.226;2023-04-16T11:40:09;23.20;32.60
62154;DHT22;48140;45.486;9.226;2023-04-16T11:42:36;23.10;32.50
62154;DHT22;48140;45.486;9.226;2023-04-16T11:45:03;23.30;32.50
62154;DHT22;48140;45.486;9.226;2023-04-16T11:47:29;23.50;31.90
62154;DHT22;48140;45.486;9.226;2023-04-16T11:50:14;23.50;32.80
62154;DHT22;48140;45.486;9.226;2023-04-16T11:52:40;23.50;30.70
62154;DHT22;48140;45.486;9.226;2023-04-16T11:55:05;23.10;31.10
62154;DHT22;48140;45.486;9.226;2023-04-16T11:57:31;22.60;31.70
62154;DHT22;48140;45.486;9.226;2023-04-16T11:59:58;22.60;31.80
62154;DHT22;48140;45.486;9.226;2023-04-16T12:05:03;23.30;32.40
62154;DHT22;48140;45.486;9.226;2023-04-16T12:07:29;23.50;31.70
62154;DHT22;48140;45.486;9.226;2023-04-16T12:10:07;23.10;31.60
62154;DHT22;48140;45.486;9.226;2023-04-16T12:12:33;23.50;31.70
62154;DHT22;48140;45.486;9.226;2023-04-16T12:15:01;23.80;31.20
62154;DHT22;48140;45.486;9.226;2023-04-16T12:17:31;24.00;30.80
62154;DHT22;48140;45.486;9.226;2023-04-16T12:20:00;24.30;31.20
62154;DHT22;48140;45.486;9.226;2023-04-16T12:22:29;24.20;31.00
62154;DHT22;48140;45.486;9.226;2023-04-16T12:24:59;24.30;29.70
62154;DHT22;48140;45.486;9.226;2023-04-16T12:27:25;24.20;30.40
62154;DHT22;48140;45.486;9.226;2023-04-16T12:30:05;24.00;30.00
62154;DHT22;48140;45.486;9.226;2023-04-16T12:32:32;23.50;30.30
62154;DHT22;48140;45.486;9.226;2023-04-16T12:34:57;23.60;30.90
62154;DHT22;48140;45.486;9.226;2023-04-16T12:37:23;24.20;30.00
62154;DHT22;48140;45.486;9.226;2023-04-16T12:39:49;24.20;29.90
62154;DHT22;48140;45.486;9.226;2023-04-16T12:42:15;24.50;29.80
62154;DHT22;48140;45.486;9.226;2023-04-16T12:44:40;24.70;29.80
62154;DHT22;48140;45.486;9.226;2023-04-16T12:47:06;25.00;29.70
62154;DHT22;48140;45.486;9.226;2023-04-16T12:49:32;24.70;29.80
62154;DHT22;48140;45.486;9.226;2023-04-16T12:51:58;24.70;29.90
62154;DHT22;48140;45.486;9.226;2023-04-16T12:54:23;24.50;30.10
62154;DHT22;48140;45.486;9.226;2023-04-16T12:56:53;24.60;29.90
62154;DHT22;48140;45.486;9.226;2023-04-16T12:59:18;24.00;30.60
62154;DHT22;48140;45.486;9.226;2023-04-16T13:01:44;23.90;30.70
62154;DHT22;48140;45.486;9.226;2023-04-16T13:04:10;24.20;30.60
62154;DHT22;48140;45.486;9.226;2023-04-16T13:06:35;24.20;29.80
62154;DHT22;48140;45.486;9.226;2023-04-16T13:09:02;24.40;29.90
62154;DHT22;48140;45.486;9.226;2023-04-16T13:11:29;24.80;29.70
62154;DHT22;48140;45.486;9.226;2023-04-16T13:13:54;24.90;29.00
62154;DHT22;48140;45.486;9.226;2023-04-16T13:16:20;25.00;28.90
62154;DHT22;48140;45.486;9.226;2023-04-16T13:18:46;25.30;28.70
62154;DHT22;48140;45.486;9.226;2023-04-16T13:21:11;25.40;28.50
62154;DHT22;48140;45.486;9.226;2023-04-16T13:23:37;25.50;28.20
62154;DHT22;48140;45.486;9.226;2023-04-16T13:26:03;25.60;27.90
62154;DHT22;48140;45.486;9.226;2023-04-16T13:28:30;25.90;27.60
62154;DHT22;48140;45.486;9.226;2023-04-16T13:30:56;25.90;27.20
62154;DHT22;48140;45.486;9.226;2023-04-16T13:33:22;25.70;27.00
62154;DHT22;48140;45.486;9.226;2023-04-16T13:35:48;25.70;26.80
62154;DHT22;48140;45.486;9.226;2023-04-16T13:38:15;25.40;27.40
62154;DHT22;48140;45.486;9.226;2023-04-16T13:40:40;25.80;27.30
62154;DHT22;48140;45.486;9.226;2023-04-16T13:43:06;25.70;27.20
62154;DHT22;48140;45.486;9.226;2023-04-16T13:45:32;25.50;27.10
62154;DHT22;48140;45.486;9.226;2023-04-16T13:47:58;25.20;27.30
62154;DHT22;48140;45.486;9.226;2023-04-16T13:50:24;24.40;27.70
62154;DHT22;48140;45.486;9.226;2023-04-16T13:52:49;24.30;28.60
62154;DHT22;48140;45.486;9.226;2023-04-16T13:55:16;24.90;27.60
62154;DHT22;48140;45.486;9.226;2023-04-16T13:57:45;25.30;27.20
62154;DHT22;48140;45.486;9.226;2023-04-16T14:00:12;25.80;26.50
62154;DHT22;48140;45.486;9.226;2023-04-16T14:02:40;26.20;27.00
62154;DHT22;48140;45.486;9.226;2023-04-16T14:05:06;26.10;25.90
62154;DHT22;48140;45.486;9.226;2023-04-16T14:07:32;26.10;26.00
62154;DHT22;48140;45.486;9.226;2023-04-16T14:09:58;26.30;26.10
62154;DHT22;48140;45.486;9.226;2023-04-16T14:12:23;26.30;25.60
62154;DHT22;48140;45.486;9.226;2023-04-16T14:14:49;25.90;25.90
62154;DHT22;48140;45.486;9.226;2023-04-16T14:17:14;25.90;26.00
62154;DHT22;48140;45.486;9.226;2023-04-16T14:19:40;25.00;26.70
62154;DHT22;48140;45.486;9.226;2023-04-16T14:22:06;25.20;26.60
62154;DHT22;48140;45.486;9.226;2023-04-16T14:24:32;25.30;26.50
62154;DHT22;48140;45.486;9.226;2023-04-16T14:26:57;25.40;26.70
62154;DHT22;48140;45.486;9.226;2023-04-16T14:29:23;25.00;26.90
62154;DHT22;48140;45.486;9.226;2023-04-16T14:31:49;25.50;26.90
62154;DHT22;48140;45.486;9.226;2023-04-16T14:34:15;25.60;26.70
62154;DHT22;48140;45.486;9.226;2023-04-16T14:36:41;25.80;26.40
62154;DHT22;48140;45.486;9.226;2023-04-16T14:39:07;26.20;26.10
62154;DHT22;48140;45.486;9.226;2023-04-16T14:41:32;26.10;26.00
62154;DHT22;48140;45.486;9.226;2023-04-16T14:43:58;26.40;25.70
62154;DHT22;48140;45.486;9.226;2023-04-16T14:46:24;26.00;25.30
62154;DHT22;48140;45.486;9.226;2023-04-16T14:48:51;25.30;26.60
62154;DHT22;48140;45.486;9.226;2023-04-16T14:51:17;25.80;26.60
62154;DHT22;48140;45.486;9.226;2023-04-16T14:53:43;25.70;26.40
62154;DHT22;48140;45.486;9.226;2023-04-16T14:56:09;25.80;26.50
62154;DHT22;48140;45.486;9.226;2023-04-16T14:58:35;25.90;26.40
62154;DHT22;48140;45.486;9.226;2023-04-16T15:01:01;26.40;26.10
62154;DHT22;48140;45.486;9.226;2023-04-16T15:03:29;26.50;26.00
62154;DHT22;48140;45.486;9.226;2023-04-16T15:05:59;26.60;25.60
62154;DHT22;48140;45.486;9.226;2023-04-16T15:08:24;26.30;25.90
62154;DHT22;48140;45.486;9.226;2023-04-16T15:10:50;26.40;26.10
62154;DHT22;48140;45.486;9.226;2023-04-16T15:13:16;26.30;25.80
62154;DHT22;48140;45.486;9.226;2023-04-16T15:15:42;25.80;26.10
62154;DHT22;48140;45.486;9.226;2023-04-16T15:18:08;25.90;26.40
62154;DHT22;48140;45.486;9.226;2023-04-16T15:20:33;25.90;26.30
62154;DHT22;48140;45.486;9.226;2023-04-16T15:23:00;26.00;26.40
62154;DHT22;48140;45.486;9.226;2023-04-16T15:25:25;26.10;26.00
62154;DHT22;48140;45.486;9.226;2023-04-16T15:27:51;26.20;25.80
62154;DHT22;48140;45.486;9.226;2023-04-16T15:30:17;26.20;25.60
62154;DHT22;48140;45.486;9.226;2023-04-16T15:32:43;26.30;25.70
62154;DHT22;48140;45.486;9.226;2023-04-16T15:35:09;26.30;25.70
62154;DHT22;48140;45.486;9.226;2023-04-16T15:37:35;26.30;25.50
62154;DHT22;48140;45.486;9.226;2023-04-16T15:40:01;26.20;25.70